sensor_id;sensor_type;location;lat;lon;timestamp;temperature;humidity
2851;DHT22;1433;49.976;8.342;2023-08-12T00:01:29;19.70;99.90
2851;DHT22;1433;49.976;8.342;2023-08-12T00:03:55;19.70;99.90
2851;DHT22;1433;49.976;8.342;2023-08-12T00:06:22;19.70;99.90
2851;DHT22;1433;49.976;8.342;2023-08-12T00:08:48;19.70;99.90
2851;DHT22;1433;49.976;8.342;2023-08-12T00:11:14;19.70;99.90
2851;DHT22;1433;49.976;8.342;2023-08-12T00:13:40;19.80;99.90
2851;DHT22;1433;49.976;8.342;2023-08-12T00:16:07;19.70;99.90
2851;DHT22;1433;49.976;8.342;2023-08-12T00:18:33;19.80;99.90
2851;DHT22;1433;49.976;8.342;2023-08-12T00:21:01;19.80;99.90
2851;DHT22;1433;49.976;8.342;2023-08-12T00:23:27;19.80;99.90
2851;DHT22;1433;49.976;8.342;2023-08-12T00:25:57;19.80;99.90
2851;DHT22;1433;49.976;8.342;2023-08-12T00:28:23;19.90;99.90
2851;DHT22;1433;49.976;8.342;2023-08-12T00:30:50;19.80;99.90
2851;DHT22;1433;49.976;8.342;2023-08-12T00:33:16;19.80;99.90
2851;DHT22;1433;49.976;8.342;2023-08-12T00:35:42;19.70;99.90
2851;DHT22;1433;49.976;8.342;2023-08-12T00:38:08;19.70;99.90
2851;DHT22;1433;49.976;8.342;2023-08-12T00:40:34;19.70;99.90
2851;DHT22;1433;49.976;8.342;2023-08-12T00:43:00;19.60;99.90
2851;DHT22;1433;49.976;8.342;2023-08-12T00:45:27;19.70;99.90
2851;DHT22;1433;49.976;8.342;2023-08-12T00:47:53;19.70;99.90
2851;DHT22;1433;49.976;8.342;2023-08-12T00:50:19;19.80;99.90
2851;DHT22;1433;49.976;8.342;2023-08-12T00:52:46;19.80;99.90
2851;DHT22;1433;49.976;8.342;2023-08-12T00:55:13;19.80;99.90
2851;DHT22;1433;49.976;8.342;2023-08-12T00:57:39;19.70;99.90
2851;DHT22;1433;49.976;8.342;2023-08-12T01:00:06;19.70;99.90
2851;DHT22;1433;49.976;8.342;2023-08-12T01:02:34;19.70;99.90
2851;DHT22;1433;49.976;8.342;2023-08-12T01:05:00;19.70;99.90
2851;DHT22;1433;49.976;8.342;2023-08-12T01:07:26;19.70;99.90
2851;DHT22;1433;49.976;8.342;2023-08-12T01:09:52;19.70;99.90
2851;DHT22;1433;49.976;8.342;2023-08-12T01:12:29;19.80;99.90
2851;DHT22;1433;49.976;8.342;2023-08-12T01:15:11;19.70;99.90
2851;DHT22;1433;49.976;8.342;2023-08-12T01:17:38;19.70;99.90
2851;DHT22;1433;49.976;8.342;2023-08-12T01:20:07;19.80;99.90
2851;DHT22;1433;49.976;8.342;2023-08-12T01:22:38;19.80;99.90
2851;DHT22;1433;49.976;8.342;2023-08-12T01:25:08;19.90;99.90
2851;DHT22;1433;49.976;8.342;2023-08-12T01:27:35;19.90;99.90
2851;DHT22;1433;49.976;8.342;2023-08-12T01:30:04;19.90;99.90
2851;DHT22;1433;49.976;8.342;2023-08-12T01:32:54;19.90;99.90
2851;DHT22;1433;49.976;8.342;2023-08-12T01:35:35;20.00;99.90
2851;DHT22;1433;49.976;8.342;2023-08-12T01:38:04;20.00;99.90
2851;DHT22;1433;49.976;8.342;2023-08-12T01:40:33;20.00;99.90
2851;DHT22;1433;49.976;8.342;2023-08-12T01:43:00;19.90;99.90
2851;DHT22;1433;49.976;8.342;2023-08-12T01:45:27;19.90;99.90
2851;DHT22;1433;49.976;8.342;2023-08-12T01:47:53;19.90;99.90
2851;DHT22;1433;49.976;8.342;2023-08-12T01:50:19;19.90;99.90
2851;DHT22;1433;49.976;8.342;2023-08-12T01:52:47;19.90;99.90
2851;DHT22;1433;49.976;8.342;2023-08-12T01:55:13;20.00;99.90
2851;DHT22;1433;49.976;8.342;2023-08-12T01:57:39;19.90;99.90
2851;DHT22;1433;49.976;8.342;2023-08-12T02:00:06;20.00;99.90
2851;DHT22;1433;49.976;8.342;2023-08-12T02:02:42;20.00;99.90
2851;DHT22;1433;49.976;8.342;2023-08-12T02:05:11;20.10;99.90
2851;DHT22;1433;49.976;8.342;2023-08-12T02:07:37;20.20;99.90
2851;DHT22;1433;49.976;8.342;2023-08-12T02:10:03;20.20;99.90
2851;DHT22;1433;49.976;8.342;2023-08-12T02:12:31;20.30;99.90
2851;DHT22;1433;49.976;8.342;2023-08-12T02:14:57;20.30;99.90
2851;DHT22;1433;49.976;8.342;2023-08-12T02:17:23;20.30;99.90
2851;DHT22;1433;49.976;8.342;2023-08-12T02:19:51;20.30;99.90
2851;DHT22;1433;49.976;8.342;2023-08-12T02:22:17;20.20;99.90
2851;DHT22;1433;49.976;8.342;2023-08-12T02:24:43;20.00;99.90
2851;DHT22;1433;49.976;8.342;2023-08-12T02:27:09;19.70;99.90
2851;DHT22;1433;49.976;8.342;2023-08-12T02:29:36;19.30;99.90
2851;DHT22;1433;49.976;8.342;2023-08-12T02:32:02;19.20;99.90
2851;DHT22;1433;49.976;8.342;2023-08-12T02:34:28;19.10;99.90
2851;DHT22;1433;49.976;8.342;2023-08-12T02:36:54;19.00;99.90
2851;DHT22;1433;49.976;8.342;2023-08-12T02:39:21;19.00;99.90
2851;DHT22;1433;49.976;8.342;2023-08-12T02:41:47;19.00;99.90
2851;DHT22;1433;49.976;8.342;2023-08-12T02:44:13;19.00;99.90
2851;DHT22;1433;49.976;8.342;2023-08-12T02:46:39;19.10;99.90
2851;DHT22;1433;49.976;8.342;2023-08-12T02:49:05;19.20;99.90
2851;DHT22;1433;49.976;8.342;2023-08-12T02:51:31;19.30;99.90
2851;DHT22;1433;49.976;8.342;2023-08-12T02:53:57;19.30;99.90
2851;DHT22;1433;49.976;8.342;2023-08-12T02:56:23;19.10;99.90
2851;DHT22;1433;49.976;8.342;2023-08-12T02:58:49;19.10;99.90
2851;DHT22;1433;49.976;8.342;2023-08-12T03:01:16;19.00;99.90
2851;DHT22;1433;49.976;8.342;2023-08-12T03:03:42;19.00;99.90
2851;DHT22;1433;49.976;8.342;2023-08-12T03:06:08;19.00;99.90
2851;DHT22;1433;49.976;8.342;2023-08-12T03:08:35;19.00;99.90
2851;DHT22;1433;49.976;8.342;2023-08-12T03:11:02;19.00;99.90
2851;DHT22;1433;49.976;8.342;2023-08-12T03:13:30;19.00;99.90
2851;DHT22;1433;49.976;8.342;2023-08-12T03:15:56;19.00;99.90
2851;DHT22;1433;49.976;8.342;2023-08-12T03:18:23;19.10;99.90
2851;DHT22;1433;49.976;8.342;2023-08-12T03:20:49;19.10;99.90
2851;DHT22;1433;49.976;8.342;2023-08-12T03:23:16;19.00;99.90
2851;DHT22;1433;49.976;8.342;2023-08-12T03:25:42;19.10;99.90
2851;DHT22;1433;49.976;8.342;2023-08-12T03:28:08;19.10;99.90
2851;DHT22;1433;49.976;8.342;2023-08-12T03:30:35;19.10;99.90
2851;DHT22;1433;49.976;8.342;2023-08-12T03:33:02;19.10;99.90
2851;DHT22;1433;49.976;8.342;2023-08-12T03:35:31;19.20;99.90
2851;DHT22;1433;49.976;8.342;2023-08-12T03:37:57;19.20;99.90
2851;DHT22;1433;49.976;8.342;2023-08-12T03:40:26;19.20;99.90
2851;DHT22;1433;49.976;8.342;2023-08-12T03:42:54;19.20;99.90
2851;DHT22;1433;49.976;8.342;2023-08-12T03:45:22;19.20;99.90
2851;DHT22;1433;49.976;8.342;2023-08-12T03:47:48;19.20;99.90
2851;DHT22;1433;49.976;8.342;2023-08-12T03:50:15;19.30;99.90
2851;DHT22;1433;49.976;8.342;2023-08-12T03:52:41;19.30;99.90
2851;DHT22;1433;49.976;8.342;2023-08-12T03:55:08;19.40;99.90
2851;DHT22;1433;49.976;8.342;2023-08-12T03:57:34;19.40;99.90
2851;DHT22;1433;49.976;8.342;2023-08-12T04:00:01;19.40;99.90
2851;DHT22;1433;49.976;8.342;2023-08-12T04:02:28;19.40;99.90
2851;DHT22;1433;49.976;8.342;2023-08-12T04:04:55;19.40;99.90
2851;DHT22;1433;49.976;8.342;2023-08-12T04:07:21;19.50;99.90
2851;DHT22;1433;49.976;8.342;2023-08-12T04:09:47;19.50;99.90
2851;DHT22;1433;49.976;8.342;2023-08-12T04:12:13;19.50;99.90
2851;DHT22;1433;49.976;8.342;2023-08-12T04:14:39;19.50;99.90
2851;DHT22;1433;49.976;8.342;2023-08-12T04:17:07;19.50;99.90
2851;DHT22;1433;49.976;8.342;2023-08-12T04:19:33;19.40;99.90
2851;DHT22;1433;49.976;8.342;2023-08-12T04:21:59;19.40;99.90
2851;DHT22;1433;49.976;8.342;2023-08-12T04:24:26;19.50;99.90
2851;DHT22;1433;49.976;8.342;2023-08-12T04:26:52;19.50;99.90
2851;DHT22;1433;49.976;8.342;2023-08-12T04:29:18;19.50;99.90
2851;DHT22;1433;49.976;8.342;2023-08-12T04:31:46;19.60;99.90
2851;DHT22;1433;49.976;8.342;2023-08-12T04:34:12;19.70;99.90
2851;DHT22;1433;49.976;8.342;2023-08-12T04:36:38;19.70;99.90
2851;DHT22;1433;49.976;8.342;2023-08-12T04:39:04;19.70;99.90
2851;DHT22;1433;49.976;8.342;2023-08-12T04:41:31;19.80;99.90
2851;DHT22;1433;49.976;8.342;2023-08-12T04:44:00;19.80;99.90
2851;DHT22;1433;49.976;8.342;2023-08-12T04:46:27;19.90;99.90
2851;DHT22;1433;49.976;8.342;2023-08-12T04:48:54;19.90;99.90
2851;DHT22;1433;49.976;8.342;2023-08-12T04:51:20;19.80;99.90
2851;DHT22;1433;49.976;8.342;2023-08-12T04:53:47;19.80;99.90
2851;DHT22;1433;49.976;8.342;2023-08-12T04:56:14;19.80;99.90
2851;DHT22;1433;49.976;8.342;2023-08-12T04:58:40;19.70;99.90
2851;DHT22;1433;49.976;8.342;2023-08-12T05:01:07;19.70;99.90
2851;DHT22;1433;49.976;8.342;2023-08-12T05:03:33;19.80;99.90
2851;DHT22;1433;49.976;8.342;2023-08-12T05:06:00;19.70;99.90
2851;DHT22;1433;49.976;8.342;2023-08-12T05:08:26;19.70;99.90
2851;DHT22;1433;49.976;8.342;2023-08-12T05:10:52;19.70;99.90
2851;DHT22;1433;49.976;8.342;2023-08-12T05:13:19;19.70;99.90
2851;DHT22;1433;49.976;8.342;2023-08-12T05:15:46;19.70;99.90
2851;DHT22;1433;49.976;8.342;2023-08-12T05:18:13;19.70;99.90
2851;DHT22;1433;49.976;8.342;2023-08-12T05:20:40;19.60;99.90
2851;DHT22;1433;49.976;8.342;2023-08-12T05:23:08;19.60;99.90
2851;DHT22;1433;49.976;8.342;2023-08-12T05:25:34;19.60;99.90
2851;DHT22;1433;49.976;8.342;2023-08-12T05:28:01;19.60;99.90
2851;DHT22;1433;49.976;8.342;2023-08-12T05:30:27;19.50;99.90
2851;DHT22;1433;49.976;8.342;2023-08-12T05:32:53;19.50;99.90
2851;DHT22;1433;49.976;8.342;2023-08-12T05:35:19;19.50;99.90
2851;DHT22;1433;49.976;8.342;2023-08-12T05:37:45;19.50;99.90
2851;DHT22;1433;49.976;8.342;2023-08-12T05:40:11;19.50;99.90
2851;DHT22;1433;49.976;8.342;2023-08-12T05:42:37;19.50;99.90
2851;DHT22;1433;49.976;8.342;2023-08-12T05:45:04;19.50;99.90
2851;DHT22;1433;49.976;8.342;2023-08-12T05:47:30;19.50;99.90
2851;DHT22;1433;49.976;8.342;2023-08-12T05:49:58;19.60;99.90
2851;DHT22;1433;49.976;8.342;2023-08-12T05:52:24;19.60;99.90
2851;DHT22;1433;49.976;8.342;2023-08-12T05:54:50;19.60;99.90
2851;DHT22;1433;49.976;8.342;2023-08-12T05:57:17;19.60;99.90
2851;DHT22;1433;49.976;8.342;2023-08-12T05:59:43;19.60;99.90
2851;DHT22;1433;49.976;8.342;2023-08-12T06:02:09;19.60;99.90
2851;DHT22;1433;49.976;8.342;2023-08-12T06:04:35;19.70;99.90
2851;DHT22;1433;49.976;8.342;2023-08-12T06:07:01;19.70;99.90
2851;DHT22;1433;49.976;8.342;2023-08-12T06:09:27;19.80;99.90
2851;DHT22;1433;49.976;8.342;2023-08-12T06:11:53;19.80;99.90
2851;DHT22;1433;49.976;8.342;2023-08-12T06:14:19;19.90;99.90
2851;DHT22;1433;49.976;8.342;2023-08-12T06:16:46;19.80;99.90
2851;DHT22;1433;49.976;8.342;2023-08-12T06:19:12;19.90;99.90
2851;DHT22;1433;49.976;8.342;2023-08-12T06:21:38;19.90;99.90
2851;DHT22;1433;49.976;8.342;2023-08-12T06:24:04;20.00;99.90
2851;DHT22;1433;49.976;8.342;2023-08-12T06:26:31;20.00;99.90
2851;DHT22;1433;49.976;8.342;2023-08-12T06:28:57;20.00;99.90
2851;DHT22;1433;49.976;8.342;2023-08-12T06:31:23;20.10;99.90
2851;DHT22;1433;49.976;8.342;2023-08-12T06:33:49;20.20;99.90
2851;DHT22;1433;49.976;8.342;2023-08-12T06:36:15;20.10;99.90
2851;DHT22;1433;49.976;8.342;2023-08-12T06:38:41;20.20;99.90
2851;DHT22;1433;49.976;8.342;2023-08-12T06:41:07;20.40;99.90
2851;DHT22;1433;49.976;8.342;2023-08-12T06:43:33;20.70;99.90
2851;DHT22;1433;49.976;8.342;2023-08-12T06:46:01;20.90;99.90
2851;DHT22;1433;49.976;8.342;2023-08-12T06:48:27;21.00;99.90
2851;DHT22;1433;49.976;8.342;2023-08-12T06:50:56;20.90;99.90
2851;DHT22;1433;49.976;8.342;2023-08-12T06:53:25;21.10;99.90
2851;DHT22;1433;49.976;8.342;2023-08-12T06:55:51;21.10;99.90
2851;DHT22;1433;49.976;8.342;2023-08-12T06:58:17;21.40;99.90
2851;DHT22;1433;49.976;8.342;2023-08-12T07:00:43;21.70;99.90
2851;DHT22;1433;49.976;8.342;2023-08-12T07:03:09;21.90;99.90
2851;DHT22;1433;49.976;8.342;2023-08-12T07:05:35;21.90;99.90
2851;DHT22;1433;49.976;8.342;2023-08-12T07:08:02;22.10;99.90
2851;DHT22;1433;49.976;8.342;2023-08-12T07:10:28;22.30;99.90
2851;DHT22;1433;49.976;8.342;2023-08-12T07:12:54;22.40;99.90
2851;DHT22;1433;49.976;8.342;2023-08-12T07:15:20;22.70;99.90
2851;DHT22;1433;49.976;8.342;2023-08-12T07:17:46;23.00;99.90
2851;DHT22;1433;49.976;8.342;2023-08-12T07:20:13;23.10;99.90
2851;DHT22;1433;49.976;8.342;2023-08-12T07:22:39;23.00;99.90
2851;DHT22;1433;49.976;8.342;2023-08-12T07:25:05;23.00;99.90
2851;DHT22;1433;49.976;8.342;2023-08-12T07:27:31;23.00;99.90
2851;DHT22;1433;49.976;8.342;2023-08-12T07:29:58;23.00;99.90
2851;DHT22;1433;49.976;8.342;2023-08-12T07:32:24;23.10;99.90
2851;DHT22;1433;49.976;8.342;2023-08-12T07:34:50;23.20;99.90
2851;DHT22;1433;49.976;8.342;2023-08-12T07:37:16;23.20;99.90
2851;DHT22;1433;49.976;8.342;2023-08-12T07:39:42;23.30;99.90
2851;DHT22;1433;49.976;8.342;2023-08-12T07:42:08;23.30;99.90
2851;DHT22;1433;49.976;8.342;2023-08-12T07:44:34;23.30;99.90
2851;DHT22;1433;49.976;8.342;2023-08-12T07:47:00;23.60;99.90
2851;DHT22;1433;49.976;8.342;2023-08-12T07:49:27;23.60;99.90
2851;DHT22;1433;49.976;8.342;2023-08-12T07:51:53;23.70;99.90
2851;DHT22;1433;49.976;8.342;2023-08-12T07:54:19;23.60;99.90
2851;DHT22;1433;49.976;8.342;2023-08-12T07:56:45;23.80;99.90
2851;DHT22;1433;49.976;8.342;2023-08-12T07:59:11;23.90;99.90
2851;DHT22;1433;49.976;8.342;2023-08-12T08:01:39;23.90;99.90
2851;DHT22;1433;49.976;8.342;2023-08-12T08:04:05;23.70;99.90
2851;DHT22;1433;49.976;8.342;2023-08-12T08:06:32;24.00;99.90
2851;DHT22;1433;49.976;8.342;2023-08-12T08:08:58;24.10;99.90
2851;DHT22;1433;49.976;8.342;2023-08-12T08:11:24;24.00;99.90
2851;DHT22;1433;49.976;8.342;2023-08-12T08:13:50;24.10;99.90
2851;DHT22;1433;49.976;8.342;2023-08-12T08:16:17;24.30;99.90
2851;DHT22;1433;49.976;8.342;2023-08-12T08:18:43;24.60;99.90
2851;DHT22;1433;49.976;8.342;2023-08-12T08:21:09;24.90;99.90
2851;DHT22;1433;49.976;8.342;2023-08-12T08:23:35;24.80;99.90
2851;DHT22;1433;49.976;8.342;2023-08-12T08:26:01;24.50;99.90
2851;DHT22;1433;49.976;8.342;2023-08-12T08:28:28;24.40;99.90
2851;DHT22;1433;49.976;8.342;2023-08-12T08:30:54;24.10;99.90
2851;DHT22;1433;49.976;8.342;2023-08-12T08:33:20;23.80;99.90
2851;DHT22;1433;49.976;8.342;2023-08-12T08:35:46;24.10;99.90
2851;DHT22;1433;49.976;8.342;2023-08-12T08:38:12;24.60;99.90
2851;DHT22;1433;49.976;8.342;2023-08-12T08:40:39;24.80;99.90
2851;DHT22;1433;49.976;8.342;2023-08-12T08:43:07;25.20;99.90
2851;DHT22;1433;49.976;8.342;2023-08-12T08:45:33;25.50;99.90
2851;DHT22;1433;49.976;8.342;2023-08-12T08:48:01;25.80;99.90
2851;DHT22;1433;49.976;8.342;2023-08-12T08:50:29;26.10;99.90
2851;DHT22;1433;49.976;8.342;2023-08-12T08:52:56;25.90;99.90
2851;DHT22;1433;49.976;8.342;2023-08-12T08:55:23;25.60;99.90
2851;DHT22;1433;49.976;8.342;2023-08-12T08:57:49;24.70;99.90
2851;DHT22;1433;49.976;8.342;2023-08-12T09:00:17;24.50;99.90
2851;DHT22;1433;49.976;8.342;2023-08-12T09:02:46;24.50;99.90
2851;DHT22;1433;49.976;8.342;2023-08-12T09:05:14;24.70;99.90
2851;DHT22;1433;49.976;8.342;2023-08-12T09:07:41;24.70;99.90
2851;DHT22;1433;49.976;8.342;2023-08-12T09:10:11;24.70;99.90
2851;DHT22;1433;49.976;8.342;2023-08-12T09:12:40;24.70;99.90
2851;DHT22;1433;49.976;8.342;2023-08-12T09:15:07;24.90;99.90
2851;DHT22;1433;49.976;8.342;2023-08-12T09:17:33;25.00;99.90
2851;DHT22;1433;49.976;8.342;2023-08-12T09:19:59;25.10;99.90
2851;DHT22;1433;49.976;8.342;2023-08-12T09:22:26;25.30;99.90
2851;DHT22;1433;49.976;8.342;2023-08-12T09:24:58;25.90;99.90
2851;DHT22;1433;49.976;8.342;2023-08-12T09:27:24;26.40;99.90
2851;DHT22;1433;49.976;8.342;2023-08-12T09:29:55;27.10;99.90
2851;DHT22;1433;49.976;8.342;2023-08-12T09:32:21;27.30;99.90
2851;DHT22;1433;49.976;8.342;2023-08-12T09:34:51;27.40;99.90
2851;DHT22;1433;49.976;8.342;2023-08-12T09:37:19;27.60;99.90
2851;DHT22;1433;49.976;8.342;2023-08-12T09:39:47;27.80;99.90
2851;DHT22;1433;49.976;8.342;2023-08-12T09:42:14;27.50;99.90
2851;DHT22;1433;49.976;8.342;2023-08-12T09:44:41;27.10;99.90
2851;DHT22;1433;49.976;8.342;2023-08-12T09:47:07;27.20;99.90
2851;DHT22;1433;49.976;8.342;2023-08-12T09:49:35;27.30;99.90
2851;DHT22;1433;49.976;8.342;2023-08-12T09:52:05;27.20;99.90
2851;DHT22;1433;49.976;8.342;2023-08-12T09:54:31;26.80;99.90
2851;DHT22;1433;49.976;8.342;2023-08-12T09:56:59;26.40;99.90
2851;DHT22;1433;49.976;8.342;2023-08-12T09:59:31;26.00;99.90
2851;DHT22;1433;49.976;8.342;2023-08-12T10:02:04;24.70;99.90
2851;DHT22;1433;49.976;8.342;2023-08-12T10:04:39;23.90;99.90
2851;DHT22;1433;49.976;8.342;2023-08-12T10:07:08;23.20;99.90
2851;DHT22;1433;49.976;8.342;2023-08-12T10:09:36;22.70;99.90
2851;DHT22;1433;49.976;8.342;2023-08-12T10:12:05;22.40;99.90
2851;DHT22;1433;49.976;8.342;2023-08-12T10:14:31;22.40;99.90
2851;DHT22;1433;49.976;8.342;2023-08-12T10:16:58;22.20;99.90
2851;DHT22;1433;49.976;8.342;2023-08-12T10:19:25;21.90;99.90
2851;DHT22;1433;49.976;8.342;2023-08-12T10:21:54;21.70;99.90
2851;DHT22;1433;49.976;8.342;2023-08-12T10:24:21;21.50;99.90
2851;DHT22;1433;49.976;8.342;2023-08-12T10:26:49;21.50;99.90
2851;DHT22;1433;49.976;8.342;2023-08-12T10:29:16;21.50;99.90
2851;DHT22;1433;49.976;8.342;2023-08-12T10:31:43;21.40;99.90
2851;DHT22;1433;49.976;8.342;2023-08-12T10:34:21;21.40;99.90
2851;DHT22;1433;49.976;8.342;2023-08-12T10:36:48;21.30;99.90
2851;DHT22;1433;49.976;8.342;2023-08-12T10:39:16;21.20;99.90
2851;DHT22;1433;49.976;8.342;2023-08-12T10:41:49;21.30;99.90
2851;DHT22;1433;49.976;8.342;2023-08-12T10:44:12;21.30;99.90
2851;DHT22;1433;49.976;8.342;2023-08-12T10:46:38;21.30;99.90
2851;DHT22;1433;49.976;8.342;2023-08-12T10:49:09;21.20;99.90
2851;DHT22;1433;49.976;8.342;2023-08-12T10:51:50;21.10;99.90
2851;DHT22;1433;49.976;8.342;2023-08-12T11:02:32;21.10;99.90
2851;DHT22;1433;49.976;8.342;2023-08-12T11:07:59;21.60;99.90
2851;DHT22;1433;49.976;8.342;2023-08-12T11:10:32;21.90;99.90
2851;DHT22;1433;49.976;8.342;2023-08-12T11:13:00;22.20;99.90
2851;DHT22;1433;49.976;8.342;2023-08-12T11:18:04;23.10;99.90
2851;DHT22;1433;49.976;8.342;2023-08-12T11:20:32;24.60;99.90
2851;DHT22;1433;49.976;8.342;2023-08-12T11:23:00;25.10;99.90
2851;DHT22;1433;49.976;8.342;2023-08-12T11:25:28;25.00;99.90
2851;DHT22;1433;49.976;8.342;2023-08-12T11:27:55;24.70;99.90
2851;DHT22;1433;49.976;8.342;2023-08-12T11:30:23;24.50;99.90
2851;DHT22;1433;49.976;8.342;2023-08-12T11:32:51;24.30;99.90
2851;DHT22;1433;49.976;8.342;2023-08-12T11:35:18;24.00;99.90
2851;DHT22;1433;49.976;8.342;2023-08-12T11:37:48;23.90;99.90
2851;DHT22;1433;49.976;8.342;2023-08-12T11:40:16;23.60;99.90
2851;DHT22;1433;49.976;8.342;2023-08-12T11:42:48;23.60;99.90
2851;DHT22;1433;49.976;8.342;2023-08-12T11:45:15;23.60;99.90
2851;DHT22;1433;49.976;8.342;2023-08-12T11:47:41;23.40;99.90
2851;DHT22;1433;49.976;8.342;2023-08-12T11:50:09;23.40;99.90
2851;DHT22;1433;49.976;8.342;2023-08-12T11:52:36;23.50;99.90
2851;DHT22;1433;49.976;8.342;2023-08-12T11:55:04;23.50;99.90
2851;DHT22;1433;49.976;8.342;2023-08-12T11:57:32;23.50;99.90
2851;DHT22;1433;49.976;8.342;2023-08-12T12:00:05;23.60;99.90
2851;DHT22;1433;49.976;8.342;2023-08-12T12:02:44;23.70;99.90
2851;DHT22;1433;49.976;8.342;2023-08-12T12:05:11;23.70;99.90
2851;DHT22;1433;49.976;8.342;2023-08-12T12:07:37;24.00;99.90
2851;DHT22;1433;49.976;8.342;2023-08-12T12:10:07;24.40;99.90
2851;DHT22;1433;49.976;8.342;2023-08-12T12:12:34;24.50;99.90
2851;DHT22;1433;49.976;8.342;2023-08-12T12:15:04;24.80;99.90
2851;DHT22;1433;49.976;8.342;2023-08-12T12:17:31;25.10;99.90
2851;DHT22;1433;49.976;8.342;2023-08-12T12:19:58;25.30;99.90
2851;DHT22;1433;49.976;8.342;2023-08-12T12:22:32;25.60;99.90
2851;DHT22;1433;49.976;8.342;2023-08-12T12:24:59;25.70;99.90
2851;DHT22;1433;49.976;8.342;2023-08-12T12:27:27;25.90;99.90
2851;DHT22;1433;49.976;8.342;2023-08-12T12:29:53;26.80;99.90
2851;DHT22;1433;49.976;8.342;2023-08-12T12:32:20;27.60;99.90
2851;DHT22;1433;49.976;8.342;2023-08-12T12:34:47;27.70;99.90
2851;DHT22;1433;49.976;8.342;2023-08-12T12:37:14;27.50;99.90
2851;DHT22;1433;49.976;8.342;2023-08-12T12:39:40;27.50;99.90
2851;DHT22;1433;49.976;8.342;2023-08-12T12:42:06;28.00;99.90
2851;DHT22;1433;49.976;8.342;2023-08-12T12:44:33;28.90;99.90
2851;DHT22;1433;49.976;8.342;2023-08-12T12:46:59;29.00;99.90
2851;DHT22;1433;49.976;8.342;2023-08-12T12:49:25;29.00;99.90
2851;DHT22;1433;49.976;8.342;2023-08-12T12:51:52;28.80;99.90
2851;DHT22;1433;49.976;8.342;2023-08-12T12:54:18;29.80;99.90
2851;DHT22;1433;49.976;8.342;2023-08-12T12:56:44;31.00;99.90
2851;DHT22;1433;49.976;8.342;2023-08-12T12:59:10;31.80;99.90
2851;DHT22;1433;49.976;8.342;2023-08-12T13:01:36;32.10;99.90
2851;DHT22;1433;49.976;8.342;2023-08-12T13:04:03;32.60;99.90
2851;DHT22;1433;49.976;8.342;2023-08-12T13:06:29;32.70;99.90
2851;DHT22;1433;49.976;8.342;2023-08-12T13:08:55;32.60;99.90
2851;DHT22;1433;49.976;8.342;2023-08-12T13:11:21;32.90;99.90
2851;DHT22;1433;49.976;8.342;2023-08-12T13:13:47;33.10;99.90
2851;DHT22;1433;49.976;8.342;2023-08-12T13:16:14;33.50;99.90
2851;DHT22;1433;49.976;8.342;2023-08-12T13:18:40;33.10;99.90
2851;DHT22;1433;49.976;8.342;2023-08-12T13:21:06;33.40;99.90
2851;DHT22;1433;49.976;8.342;2023-08-12T13:23:35;33.80;99.90
2851;DHT22;1433;49.976;8.342;2023-08-12T13:26:03;33.90;99.90
2851;DHT22;1433;49.976;8.342;2023-08-12T13:28:29;34.30;99.90
2851;DHT22;1433;49.976;8.342;2023-08-12T13:30:56;34.00;99.90
2851;DHT22;1433;49.976;8.342;2023-08-12T13:33:23;34.20;99.90
2851;DHT22;1433;49.976;8.342;2023-08-12T13:35:52;34.20;99.90
2851;DHT22;1433;49.976;8.342;2023-08-12T13:38:18;33.90;99.90
2851;DHT22;1433;49.976;8.342;2023-08-12T13:40:44;33.60;99.90
2851;DHT22;1433;49.976;8.342;2023-08-12T13:43:11;33.30;99.90
2851;DHT22;1433;49.976;8.342;2023-08-12T13:45:37;33.10;99.90
2851;DHT22;1433;49.976;8.342;2023-08-12T13:48:03;32.70;99.90
2851;DHT22;1433;49.976;8.342;2023-08-12T13:50:30;32.20;99.90
2851;DHT22;1433;49.976;8.342;2023-08-12T13:52:58;32.10;99.90
2851;DHT22;1433;49.976;8.342;2023-08-12T13:55:25;32.00;99.90
2851;DHT22;1433;49.976;8.342;2023-08-12T13:57:51;31.90;99.90
2851;DHT22;1433;49.976;8.342;2023-08-12T14:00:19;31.80;99.90
2851;DHT22;1433;49.976;8.342;2023-08-12T14:02:45;31.60;99.90
2851;DHT22;1433;49.976;8.342;2023-08-12T14:05:14;31.60;99.90
2851;DHT22;1433;49.976;8.342;2023-08-12T14:07:40;31.20;99.90
2851;DHT22;1433;49.976;8.342;2023-08-12T14:10:07;30.70;99.90
2851;DHT22;1433;49.976;8.342;2023-08-12T14:12:34;30.50;99.90
2851;DHT22;1433;49.976;8.342;2023-08-12T14:15:01;31.00;99.90
2851;DHT22;1433;49.976;8.342;2023-08-12T14:17:27;31.30;99.90
2851;DHT22;1433;49.976;8.342;2023-08-12T14:19:53;32.50;99.90
2851;DHT22;1433;49.976;8.342;2023-08-12T14:22:20;33.80;99.90
2851;DHT22;1433;49.976;8.342;2023-08-12T14:24:47;34.50;99.90
2851;DHT22;1433;49.976;8.342;2023-08-12T14:27:16;34.40;99.90
2851;DHT22;1433;49.976;8.342;2023-08-12T14:29:45;33.60;99.90
2851;DHT22;1433;49.976;8.342;2023-08-12T14:32:11;33.00;99.90
2851;DHT22;1433;49.976;8.342;2023-08-12T14:34:38;32.80;99.90
2851;DHT22;1433;49.976;8.342;2023-08-12T14:37:04;32.70;99.90
2851;DHT22;1433;49.976;8.342;2023-08-12T14:39:30;32.20;99.90
2851;DHT22;1433;49.976;8.342;2023-08-12T14:41:56;31.30;99.90
2851;DHT22;1433;49.976;8.342;2023-08-12T14:44:23;30.60;99.90
2851;DHT22;1433;49.976;8.342;2023-08-12T14:46:49;30.10;99.90
2851;DHT22;1433;49.976;8.342;2023-08-12T14:49:15;29.40;99.90
2851;DHT22;1433;49.976;8.342;2023-08-12T14:51:41;29.00;99.90
2851;DHT22;1433;49.976;8.342;2023-08-12T14:54:07;28.80;99.90
2851;DHT22;1433;49.976;8.342;2023-08-12T14:56:34;28.80;99.90
2851;DHT22;1433;49.976;8.342;2023-08-12T14:59:00;28.70;99.90
2851;DHT22;1433;49.976;8.342;2023-08-12T15:01:26;28.60;99.90
2851;DHT22;1433;49.976;8.342;2023-08-12T15:03:54;28.50;99.90
2851;DHT22;1433;49.976;8.342;2023-08-12T15:06:21;28.40;99.90
2851;DHT22;1433;49.976;8.342;2023-08-12T15:08:48;28.40;99.90
2851;DHT22;1433;49.976;8.342;2023-08-12T15:11:15;28.30;99.90
2851;DHT22;1433;49.976;8.342;2023-08-12T15:13:41;28.10;99.90
2851;DHT22;1433;49.976;8.342;2023-08-12T15:16:08;28.00;99.90
2851;DHT22;1433;49.976;8.342;2023-08-12T15:18:34;27.80;99.90
2851;DHT22;1433;49.976;8.342;2023-08-12T15:21:00;27.60;99.90
2851;DHT22;1433;49.976;8.342;2023-08-12T15:23:26;27.70;99.90
2851;DHT22;1433;49.976;8.342;2023-08-12T15:25:52;27.60;99.90
2851;DHT22;1433;49.976;8.342;2023-08-12T15:28:18;27.40;99.90
2851;DHT22;1433;49.976;8.342;2023-08-12T15:30:49;27.40;99.90
2851;DHT22;1433;49.976;8.342;2023-08-12T15:33:16;27.20;99.90
2851;DHT22;1433;49.976;8.342;2023-08-12T15:35:43;27.00;99.90
2851;DHT22;1433;49.976;8.342;2023-08-12T15:38:09;26.80;99.90
2851;DHT22;1433;49.976;8.342;2023-08-12T15:40:38;26.70;99.90
2851;DHT22;1433;49.976;8.342;2023-08-12T15:43:04;26.50;99.90
2851;DHT22;1433;49.976;8.342;2023-08-12T15:45:31;26.40;99.90
2851;DHT22;1433;49.976;8.342;2023-08-12T15:47:57;26.40;99.90
2851;DHT22;1433;49.976;8.342;2023-08-12T15:50:24;26.60;99.90
2851;DHT22;1433;49.976;8.342;2023-08-12T15:52:51;27.00;99.90
2851;DHT22;1433;49.976;8.342;2023-08-12T15:55:17;27.20;99.90
2851;DHT22;1433;49.976;8.342;2023-08-12T15:57:43;27.40;99.90
2851;DHT22;1433;49.976;8.342;2023-08-12T16:00:10;27.60;99.90
2851;DHT22;1433;49.976;8.342;2023-08-12T16:02:36;27.70;99.90
2851;DHT22;1433;49.976;8.342;2023-08-12T16:05:03;27.80;99.90
2851;DHT22;1433;49.976;8.342;2023-08-12T16:07:30;27.70;99.90
2851;DHT22;1433;49.976;8.342;2023-08-12T16:09:57;27.60;99.90
2851;DHT22;1433;49.976;8.342;2023-08-12T16:12:23;27.40;99.90
2851;DHT22;1433;49.976;8.342;2023-08-12T16:14:49;27.10;99.90